Terminal Aerodrome Forecast
Issued by NWS Cleveland, OH

Home | Current Version | Previous Version | Graphics & Text | Print | Product List | Glossary Off
Versions: 1 2 3 4 5 6 7 8 9 10 11 12 13 14 15 16 17 18 19 20 21

000
FTUS41 KCLE 311055 AAB
TAFTOL
TAF AMD
KTOL 311055Z 3111/0106 25005KT 3SM BR SKC
      TEMPO 3111/3113 1 1/2SM BR
     FM311300 23006KT 5SM HZ FEW100
     FM311500 24008KT P6SM SCT050=

USA.gov is the U.S. government's official web portal to all federal, state and local government web resources and services.